Time;durP1;ratioP1;P1;durP2;ratioP2;P2;SDS_P1;SDS_P2;PMS_P1;PMS_P2;Temp;Humidity;BMP_temperature;BMP_pressure;BME280_temperature;BME280_humidity;BME280_pressure;Samples;Min_cycle;Max_cycle;Signal;HPM_P1;HPM_P2
2021/08/19 00:00:09;;;;;;;4.17;2.70;;;26.20;99.90;;;;;;5051422;28;20236;-91
2021/08/19 00:02:41;;;;;;;5.93;3.20;;;26.30;99.90;;;;;;5050446;28;20243;-91
2021/08/19 00:05:13;;;;;;;4.20;2.87;;;26.20;99.90;;;;;;5031449;28;20209;-92
2021/08/19 00:07:49;;;;;;;7.00;2.90;;;26.20;99.90;;;;;;5031074;28;20236;-91
2021/08/19 00:10:20;;;;;;;5.43;2.87;;;26.20;99.90;;;;;;5049546;28;20200;-91
2021/08/19 00:12:51;;;;;;;6.63;3.23;;;26.10;99.90;;;;;;5051297;28;20201;-92
2021/08/19 00:15:24;;;;;;;4.00;3.00;;;26.20;99.90;;;;;;5050529;28;20255;-93
2021/08/19 00:17:58;;;;;;;6.73;3.20;;;26.10;99.90;;;;;;5034107;28;20232;-92
2021/08/19 00:20:43;;;;;;;7.07;2.87;;;26.10;99.90;;;;;;5045692;28;20204;-93
2021/08/19 00:23:17;;;;;;;5.33;3.07;;;25.60;99.90;;;;;;5018104;28;20271;-92
2021/08/19 00:25:49;;;;;;;4.67;3.17;;;25.40;99.90;;;;;;5022726;28;20206;-92
2021/08/19 00:28:21;;;;;;;5.47;3.27;;;25.40;99.90;;;;;;5024364;28;20260;-92
2021/08/19 00:30:53;;;;;;;4.30;3.20;;;25.40;99.90;;;;;;5019707;28;20202;-93
2021/08/19 00:33:25;;;;;;;4.93;3.53;;;25.40;99.90;;;;;;5038257;28;20233;-92
2021/08/19 00:35:57;;;;;;;4.93;3.10;;;25.30;99.90;;;;;;5038872;28;20208;-92
2021/08/19 00:38:34;;;;;;;5.23;3.20;;;25.20;99.90;;;;;;5038811;28;20213;-92
2021/08/19 00:41:06;;;;;;;4.20;3.03;;;24.90;99.90;;;;;;5038201;28;20216;-92
2021/08/19 00:43:38;;;;;;;4.53;2.80;;;25.10;99.90;;;;;;5040584;28;20205;-92
2021/08/19 00:46:26;;;;;;;4.83;2.90;;;24.80;99.90;;;;;;5049072;28;20209;-91
2021/08/19 00:49:02;;;;;;;5.27;3.17;;;24.90;99.90;;;;;;5034110;28;20213;-92
2021/08/19 00:51:43;;;;;;;4.10;2.57;;;25.00;99.90;;;;;;5048547;28;20214;-92
2021/08/19 00:54:20;;;;;;;5.50;3.40;;;25.00;99.90;;;;;;5037206;28;20233;-92
2021/08/19 00:56:55;;;;;;;4.13;2.90;;;24.60;99.90;;;;;;5041840;28;20209;-92
2021/08/19 00:59:29;;;;;;;5.90;3.57;;;24.70;99.90;;;;;;5022323;28;20691;-90
2021/08/19 01:02:01;;;;;;;5.00;2.90;;;24.60;99.90;;;;;;5045022;28;20217;-89
2021/08/19 01:04:34;;;;;;;5.30;2.97;;;24.20;99.90;;;;;;5050515;28;20323;-89
2021/08/19 01:07:07;;;;;;;5.30;3.10;;;24.10;99.90;;;;;;5052175;28;20209;-92
2021/08/19 01:09:43;;;;;;;4.50;3.07;;;24.20;99.90;;;;;;5050528;28;20212;-92
2021/08/19 01:12:16;;;;;;;6.70;3.23;;;24.10;99.90;;;;;;5046269;28;20201;-93
2021/08/19 01:14:48;;;;;;;5.63;3.07;;;24.00;99.90;;;;;;5046818;28;20233;-92
2021/08/19 01:17:21;;;;;;;6.43;3.20;;;24.10;99.90;;;;;;5028526;28;20229;-92
2021/08/19 01:19:53;;;;;;;3.83;3.00;;;24.10;99.90;;;;;;5032475;28;20206;-92
2021/08/19 01:22:25;;;;;;;4.03;3.10;;;23.90;99.90;;;;;;5027733;28;20273;-92
2021/08/19 01:25:03;;;;;;;6.50;3.43;;;23.90;99.90;;;;;;5042474;28;20197;-91
2021/08/19 01:27:37;;;;;;;4.43;3.00;;;24.00;99.90;;;;;;5053972;28;20193;-92
2021/08/19 01:30:12;;;;;;;5.20;3.43;;;24.00;99.90;;;;;;5049792;28;20290;-92
2021/08/19 01:32:44;;;;;;;3.93;2.80;;;24.00;99.90;;;;;;5054615;28;20204;-91
2021/08/19 01:35:21;;;;;;;6.33;3.47;;;23.90;99.90;;;;;;5056161;28;20275;-91
2021/08/19 01:37:52;;;;;;;5.17;3.43;;;23.80;99.90;;;;;;5050755;28;20211;-91
2021/08/19 01:40:25;;;;;;;5.30;3.23;;;23.50;99.90;;;;;;5051476;28;20205;-92
2021/08/19 01:43:07;;;;;;;4.87;3.10;;;23.40;99.90;;;;;;5054036;28;20205;-91
2021/08/19 01:45:39;;;;;;;5.67;3.30;;;23.30;99.90;;;;;;5051886;28;20208;-92
2021/08/19 01:48:11;;;;;;;4.70;3.40;;;23.20;99.90;;;;;;5052007;28;20201;-92
2021/08/19 01:50:43;;;;;;;5.77;3.47;;;23.10;99.90;;;;;;5050739;28;20623;-93
2021/08/19 01:53:15;;;;;;;7.43;3.57;;;23.10;99.90;;;;;;5049705;28;20264;-92
2021/08/19 01:55:47;;;;;;;5.80;3.13;;;23.10;99.90;;;;;;5049436;28;20233;-90
2021/08/19 01:58:22;;;;;;;6.37;3.87;;;23.10;99.90;;;;;;5044210;28;20259;-91
2021/08/19 02:00:55;;;;;;;7.20;3.53;;;23.10;99.90;;;;;;5053853;28;20205;-93
2021/08/19 02:03:31;;;;;;;6.50;3.40;;;23.00;99.90;;;;;;5053568;28;20209;-92
2021/08/19 02:08:49;;;;;;;6.57;3.50;;;22.90;99.90;;;;;;5806465;22;20344;-92
2021/08/19 02:11:20;;;;;;;7.80;3.97;;;22.80;99.90;;;;;;5033689;28;20683;-92
2021/08/19 02:13:55;;;;;;;5.30;3.60;;;22.80;99.90;;;;;;5050810;28;20209;-92
2021/08/19 02:16:28;;;;;;;6.03;3.53;;;22.70;99.90;;;;;;5049238;28;20259;-94
2021/08/19 02:19:01;;;;;;;5.63;3.70;;;22.80;99.90;;;;;;5051364;28;20229;-93
2021/08/19 02:21:32;;;;;;;5.60;3.63;;;22.80;99.90;;;;;;5055581;28;20213;-92
2021/08/19 02:26:53;;;;;;;5.67;4.00;;;22.70;99.90;;;;;;5049279;28;20208;-92
2021/08/19 02:29:28;;;;;;;6.20;3.97;;;22.60;99.90;;;;;;5052442;28;20213;-92
2021/08/19 02:32:01;;;;;;;8.80;3.70;;;22.60;99.90;;;;;;5052414;28;20224;-91
2021/08/19 02:34:32;;;;;;;5.80;3.97;;;22.60;99.90;;;;;;5052702;28;20258;-92
2021/08/19 02:37:09;;;;;;;4.97;3.87;;;22.50;99.90;;;;;;5034604;28;20209;-92
2021/08/19 02:39:41;;;;;;;6.93;4.17;;;22.50;99.90;;;;;;5050194;28;20239;-93
2021/08/19 02:42:17;;;;;;;7.63;4.33;;;22.50;99.90;;;;;;5053545;28;20204;-92
2021/08/19 02:44:54;;;;;;;6.70;4.33;;;22.50;99.90;;;;;;5024507;28;20212;-92
2021/08/19 02:47:32;;;;;;;8.37;4.07;;;22.40;99.90;;;;;;5056127;28;20235;-92
2021/08/19 02:50:07;;;;;;;7.37;4.00;;;22.40;99.90;;;;;;5056397;28;20201;-92
2021/08/19 02:52:39;;;;;;;5.43;3.80;;;22.30;99.90;;;;;;5055270;28;20244;-93
2021/08/19 02:55:13;;;;;;;6.57;3.60;;;22.30;99.90;;;;;;5056163;28;20221;-93
2021/08/19 02:57:45;;;;;;;6.07;3.93;;;22.30;99.90;;;;;;5039663;28;20205;-91
2021/08/19 03:00:27;;;;;;;13.03;4.07;;;22.30;99.90;;;;;;5039915;28;20185;-93
2021/08/19 03:03:02;;;;;;;8.17;4.03;;;22.30;99.90;;;;;;5056113;28;20219;-92
2021/08/19 03:05:47;;;;;;;10.83;4.07;;;22.20;99.90;;;;;;5040861;28;20193;-92
2021/08/19 03:08:18;;;;;;;7.17;4.07;;;22.20;99.90;;;;;;5053281;28;20213;-91
2021/08/19 03:10:51;;;;;;;6.73;3.53;;;22.20;99.90;;;;;;5050181;28;20212;-92
2021/08/19 03:13:23;;;;;;;5.50;3.80;;;22.20;99.90;;;;;;5129555;22;20244;-91
2021/08/19 03:16:08;;;;;;;6.53;3.93;;;22.20;99.90;;;;;;5056545;28;20240;-92
2021/08/19 03:18:40;;;;;;;6.00;3.53;;;22.10;99.90;;;;;;5056219;28;20211;-93
2021/08/19 03:21:13;;;;;;;7.20;3.57;;;22.10;99.90;;;;;;5056628;28;20232;-92
2021/08/19 03:23:47;;;;;;;8.30;4.40;;;22.00;99.90;;;;;;5055219;28;20201;-92
2021/08/19 03:26:20;;;;;;;7.00;4.37;;;22.00;99.90;;;;;;5055536;28;20272;-92
2021/08/19 03:28:54;;;;;;;7.27;4.00;;;22.00;99.90;;;;;;5037414;28;20215;-92
2021/08/19 03:31:35;;;;;;;5.87;3.73;;;21.90;99.90;;;;;;5038472;28;20271;-92
2021/08/19 03:42:06;;;;;;;7.83;4.30;;;21.90;99.90;;;;;;5690027;22;20246;-92
2021/08/19 03:47:17;;;;;;;6.07;3.97;;;21.70;99.90;;;;;;5530468;22;20215;-91
2021/08/19 03:49:50;;;;;;;7.10;4.47;;;21.60;99.90;;;;;;5056785;28;20196;-91
2021/08/19 03:52:23;;;;;;;7.70;3.93;;;21.60;99.90;;;;;;5056732;28;20201;-92
2021/08/19 04:08:15;;;;;;;6.50;4.23;;;21.50;99.90;;;;;;5070233;28;20215;-92
2021/08/19 04:10:47;;;;;;;5.10;3.50;;;21.40;99.90;;;;;;5053089;28;20227;-93
2021/08/19 04:13:26;;;;;;;6.67;4.10;;;21.40;99.90;;;;;;5069030;28;20208;-93
2021/08/19 04:15:58;;;;;;;7.33;3.83;;;21.30;99.90;;;;;;5167957;22;20281;-91
2021/08/19 04:18:30;;;;;;;7.83;4.03;;;21.30;99.90;;;;;;5052417;28;20236;-91
2021/08/19 04:21:02;;;;;;;7.93;4.10;;;21.30;99.90;;;;;;5052482;28;20205;-92
2021/08/19 04:23:42;;;;;;;5.53;3.50;;;21.30;99.90;;;;;;5036852;28;20205;-92
2021/08/19 04:26:16;;;;;;;8.90;4.57;;;21.40;99.90;;;;;;5025556;28;20211;-91
2021/08/19 04:28:47;;;;;;;10.60;4.40;;;21.40;99.90;;;;;;5040282;28;20193;-93
2021/08/19 04:31:19;;;;;;;8.10;4.53;;;21.40;99.90;;;;;;5056499;28;20203;-91
2021/08/19 04:33:52;;;;;;;7.43;4.07;;;21.30;99.90;;;;;;5039651;28;20211;-89
2021/08/19 04:36:23;;;;;;;8.77;4.10;;;21.30;99.90;;;;;;5039066;28;20677;-91
2021/08/19 04:38:56;;;;;;;7.27;4.30;;;21.30;99.90;;;;;;5050783;28;20223;-92
2021/08/19 04:41:27;;;;;;;9.23;4.10;;;21.30;99.90;;;;;;5039527;28;20232;-92
2021/08/19 04:44:01;;;;;;;6.43;3.60;;;21.30;99.90;;;;;;5039858;28;20220;-91
2021/08/19 04:46:32;;;;;;;7.53;4.07;;;21.20;99.90;;;;;;5039096;28;20205;-92
2021/08/19 04:49:05;;;;;;;7.87;4.30;;;21.20;99.90;;;;;;5038498;28;20251;-91
2021/08/19 04:51:41;;;;;;;5.27;3.70;;;21.20;99.90;;;;;;5043793;28;20681;-91
2021/08/19 04:54:15;;;;;;;10.47;4.00;;;21.20;99.90;;;;;;5051332;28;20200;-92
2021/08/19 04:56:46;;;;;;;5.97;3.87;;;21.10;99.90;;;;;;5040323;28;20692;-92
2021/08/19 04:59:19;;;;;;;7.83;4.30;;;21.10;99.90;;;;;;5043064;28;20240;-92
2021/08/19 05:01:50;;;;;;;8.23;3.90;;;21.10;99.90;;;;;;5044152;28;20201;-92
2021/08/19 05:04:25;;;;;;;9.07;4.80;;;21.10;99.90;;;;;;5038377;28;20224;-92
2021/08/19 05:06:57;;;;;;;11.63;7.43;;;21.10;99.90;;;;;;5027721;28;20560;-92
2021/08/19 05:09:30;;;;;;;12.10;6.03;;;21.10;99.90;;;;;;5017472;28;20300;-93
2021/08/19 05:12:02;;;;;;;10.13;5.23;;;21.10;99.90;;;;;;5017238;28;20690;-92
2021/08/19 05:14:33;;;;;;;9.93;4.63;;;20.90;99.90;;;;;;5001361;28;20685;-92
2021/08/19 05:17:05;;;;;;;9.63;4.83;;;20.90;99.90;;;;;;5018478;28;20312;-92
2021/08/19 05:19:36;;;;;;;10.60;5.10;;;20.80;99.90;;;;;;5019089;28;20232;-91
2021/08/19 05:22:07;;;;;;;12.37;5.63;;;20.70;99.90;;;;;;5017325;28;20296;-92
2021/08/19 05:24:40;;;;;;;6.40;3.73;;;20.70;99.90;;;;;;5022309;28;20248;-92
2021/08/19 05:27:11;;;;;;;8.27;3.87;;;20.70;99.90;;;;;;5018814;28;20236;-92
2021/08/19 05:29:48;;;;;;;7.60;4.00;;;20.70;99.90;;;;;;5016972;28;20209;-92
2021/08/19 05:32:23;;;;;;;10.73;3.90;;;20.70;99.90;;;;;;5017131;28;20225;-92
2021/08/19 05:35:06;;;;;;;6.07;3.57;;;20.70;99.90;;;;;;5021302;28;20292;-92
2021/08/19 05:37:38;;;;;;;7.40;3.70;;;20.70;99.90;;;;;;5021658;28;20233;-92
2021/08/19 05:40:14;;;;;;;8.07;4.10;;;20.70;99.90;;;;;;5022339;28;20257;-92
2021/08/19 05:42:47;;;;;;;6.90;3.57;;;20.60;99.90;;;;;;5005886;28;20201;-91
2021/08/19 05:45:19;;;;;;;6.53;4.10;;;20.60;99.90;;;;;;5024491;28;20520;-92
2021/08/19 05:47:53;;;;;;;5.80;3.63;;;20.60;99.90;;;;;;5024262;28;20243;-92
2021/08/19 05:50:28;;;;;;;7.43;3.50;;;20.60;99.90;;;;;;5041719;28;20208;-92
2021/08/19 05:53:04;;;;;;;8.70;3.90;;;20.60;99.90;;;;;;5042922;28;20243;-92
2021/08/19 05:55:38;;;;;;;6.43;3.30;;;20.60;99.90;;;;;;5043600;28;20291;-92
2021/08/19 05:58:13;;;;;;;6.77;3.83;;;20.60;99.90;;;;;;5044382;28;20212;-92
2021/08/19 06:00:49;;;;;;;5.53;3.20;;;20.60;99.90;;;;;;5042626;28;20212;-92
2021/08/19 06:03:21;;;;;;;5.03;3.60;;;20.60;99.90;;;;;;5054165;28;20213;-93
2021/08/19 06:05:54;;;;;;;7.57;4.17;;;20.60;99.90;;;;;;5059089;28;20192;-93
2021/08/19 06:08:28;;;;;;;6.60;3.83;;;20.60;99.90;;;;;;5055078;28;20217;-93
2021/08/19 06:11:04;;;;;;;5.93;4.00;;;20.50;99.90;;;;;;5039681;28;20237;-93
2021/08/19 06:13:36;;;;;;;9.10;4.63;;;20.50;99.90;;;;;;5032959;28;20580;-93
2021/08/19 06:16:07;;;;;;;5.53;3.90;;;20.50;99.90;;;;;;5040566;28;20232;-93
2021/08/19 06:18:39;;;;;;;7.03;4.10;;;20.60;99.90;;;;;;5021560;28;20197;-93
2021/08/19 06:21:11;;;;;;;7.17;3.73;;;20.50;99.90;;;;;;5021166;28;20779;-92
2021/08/19 06:23:43;;;;;;;12.67;4.40;;;20.50;99.90;;;;;;5029663;28;20277;-93
2021/08/19 06:26:18;;;;;;;5.37;3.60;;;20.50;99.90;;;;;;5022288;28;20264;-92
2021/08/19 06:28:54;;;;;;;7.27;3.50;;;20.50;99.90;;;;;;5021482;28;20232;-92
2021/08/19 06:31:31;;;;;;;4.60;3.70;;;20.50;99.90;;;;;;5020408;28;20213;-92
2021/08/19 06:34:07;;;;;;;6.53;3.90;;;20.50;99.90;;;;;;5021161;28;20268;-91
2021/08/19 06:36:38;;;;;;;5.80;3.63;;;20.50;99.90;;;;;;5021366;28;20241;-92
2021/08/19 06:39:18;;;;;;;6.27;4.30;;;20.60;99.90;;;;;;5022840;28;20296;-92
2021/08/19 06:41:53;;;;;;;7.67;4.10;;;20.50;99.90;;;;;;5024512;28;20582;-91
2021/08/19 06:44:28;;;;;;;6.17;4.07;;;20.50;99.90;;;;;;5018445;28;20220;-92
2021/08/19 06:46:59;;;;;;;8.27;3.97;;;20.40;99.90;;;;;;5053326;28;20205;-92
2021/08/19 06:49:31;;;;;;;6.23;3.90;;;20.40;99.90;;;;;;5054320;28;20205;-92
2021/08/19 06:52:02;;;;;;;5.90;4.03;;;20.40;99.90;;;;;;5035132;28;20209;-92
2021/08/19 06:54:34;;;;;;;7.13;4.20;;;20.40;99.90;;;;;;5039492;28;20247;-92
2021/08/19 06:57:07;;;;;;;7.23;4.27;;;20.30;99.90;;;;;;5022900;28;20236;-92
2021/08/19 06:59:39;;;;;;;6.27;4.37;;;20.30;99.90;;;;;;5045561;28;20225;-91
2021/08/19 07:02:10;;;;;;;5.93;4.00;;;20.20;99.90;;;;;;5051827;28;20346;-90
2021/08/19 07:04:43;;;;;;;7.53;4.07;;;20.30;99.90;;;;;;5036115;28;20205;-92
2021/08/19 07:07:15;;;;;;;6.17;4.10;;;20.30;99.90;;;;;;5028896;28;20219;-92
2021/08/19 07:09:47;;;;;;;6.60;3.60;;;20.30;99.90;;;;;;5056987;28;20200;-91
2021/08/19 07:12:20;;;;;;;5.23;3.50;;;20.30;99.90;;;;;;5051056;28;20205;-92
2021/08/19 07:14:51;;;;;;;5.93;4.10;;;20.30;99.90;;;;;;5045035;28;20666;-91
2021/08/19 07:17:23;;;;;;;6.57;3.90;;;20.30;99.90;;;;;;5044465;28;20680;-92
2021/08/19 07:19:54;;;;;;;6.97;3.63;;;20.20;99.90;;;;;;5043718;28;20235;-92
2021/08/19 07:22:26;;;;;;;6.00;3.77;;;20.20;99.90;;;;;;5037546;28;20627;-92
2021/08/19 07:24:57;;;;;;;6.70;3.90;;;20.20;99.90;;;;;;5038194;28;20236;-92
2021/08/19 07:27:31;;;;;;;6.67;3.70;;;20.20;99.90;;;;;;5037541;28;20232;-90
2021/08/19 07:30:02;;;;;;;6.30;3.33;;;20.20;99.90;;;;;;5037575;28;20557;-91
2021/08/19 07:32:33;;;;;;;5.33;3.77;;;20.20;99.90;;;;;;5037003;28;20253;-91
2021/08/19 07:35:05;;;;;;;6.97;4.03;;;20.20;99.90;;;;;;5045112;28;20236;-91
2021/08/19 07:37:37;;;;;;;8.03;3.97;;;20.20;99.90;;;;;;5047928;28;20221;-91
2021/08/19 07:40:13;;;;;;;9.57;3.87;;;20.20;99.90;;;;;;5047510;28;20233;-91
2021/08/19 07:42:50;;;;;;;6.53;3.43;;;20.20;99.90;;;;;;5021607;28;20743;-92
2021/08/19 07:45:24;;;;;;;7.40;3.70;;;20.20;99.90;;;;;;5037542;28;20291;-92
2021/08/19 07:47:55;;;;;;;7.20;3.80;;;20.20;99.90;;;;;;5037309;28;20724;-92
2021/08/19 07:50:26;;;;;;;8.60;3.60;;;20.10;99.90;;;;;;5036160;28;20292;-90
2021/08/19 07:52:57;;;;;;;6.87;3.67;;;20.00;99.90;;;;;;5037550;28;20208;-90
2021/08/19 07:55:28;;;;;;;6.97;3.70;;;20.00;99.90;;;;;;5037370;28;20205;-90
2021/08/19 07:58:01;;;;;;;5.23;3.50;;;19.90;99.90;;;;;;5045601;28;20823;-92
2021/08/19 08:00:35;;;;;;;6.97;3.50;;;19.80;99.90;;;;;;5049552;28;20209;-91
2021/08/19 08:03:07;;;;;;;7.87;3.43;;;19.80;99.90;;;;;;5028895;28;20205;-91
2021/08/19 08:05:38;;;;;;;7.13;4.23;;;19.70;99.90;;;;;;5037494;28;20216;-91
2021/08/19 08:08:12;;;;;;;8.60;4.30;;;19.60;99.90;;;;;;5038096;28;20239;-91
2021/08/19 08:10:43;;;;;;;7.13;3.67;;;19.50;99.90;;;;;;5037600;28;20205;-92
2021/08/19 08:13:17;;;;;;;7.77;4.30;;;19.50;99.90;;;;;;5036264;28;20235;-91
2021/08/19 08:15:49;;;;;;;6.40;3.83;;;19.30;99.90;;;;;;5037260;28;20275;-91
2021/08/19 08:18:21;;;;;;;6.00;4.03;;;19.20;99.90;;;;;;5017807;28;20291;-92
2021/08/19 08:20:53;;;;;;;6.37;3.73;;;19.20;99.90;;;;;;5018042;28;20221;-92
2021/08/19 08:23:25;;;;;;;6.53;3.83;;;19.20;99.90;;;;;;5020314;28;20211;-92
2021/08/19 08:25:56;;;;;;;6.17;3.87;;;19.10;99.90;;;;;;5056525;28;20197;-91
2021/08/19 08:28:32;;;;;;;7.57;4.03;;;18.90;99.90;;;;;;5055190;28;20201;-91
2021/08/19 08:31:04;;;;;;;5.37;3.80;;;18.80;99.90;;;;;;5039369;28;20255;-92
2021/08/19 08:33:36;;;;;;;7.33;3.87;;;18.80;99.90;;;;;;5038643;28;20205;-91
2021/08/19 08:36:09;;;;;;;5.67;3.67;;;18.70;99.90;;;;;;5038202;28;20205;-91
2021/08/19 08:38:41;;;;;;;8.83;3.80;;;18.60;99.90;;;;;;5038437;28;20232;-90
2021/08/19 08:41:13;;;;;;;6.00;4.30;;;18.50;99.90;;;;;;5035732;28;20307;-91
2021/08/19 08:43:47;;;;;;;8.87;3.83;;;18.50;99.90;;;;;;5037380;28;20315;-91
2021/08/19 08:46:20;;;;;;;7.33;4.20;;;18.30;99.90;;;;;;5038765;28;20227;-91
2021/08/19 08:48:56;;;;;;;5.37;3.73;;;18.20;99.90;;;;;;5037392;28;20240;-91
2021/08/19 08:51:28;;;;;;;9.37;3.80;;;18.20;99.90;;;;;;5035831;28;20208;-91
2021/08/19 08:54:02;;;;;;;8.60;4.53;;;18.20;99.90;;;;;;5038244;28;20243;-90
2021/08/19 08:56:36;;;;;;;7.83;4.27;;;18.10;99.90;;;;;;5037418;28;20772;-91
2021/08/19 08:59:11;;;;;;;9.83;4.20;;;18.10;99.90;;;;;;5026624;28;20260;-91
2021/08/19 09:01:44;;;;;;;10.93;4.50;;;18.00;99.90;;;;;;5037039;28;20212;-91
2021/08/19 09:04:17;;;;;;;6.30;4.10;;;18.00;99.90;;;;;;5020967;28;20204;-91
2021/08/19 09:06:52;;;;;;;7.37;4.27;;;18.00;99.90;;;;;;5038626;28;20268;-91
2021/08/19 09:09:24;;;;;;;9.47;4.47;;;17.90;99.90;;;;;;5037098;28;20248;-91
2021/08/19 09:11:57;;;;;;;5.07;3.73;;;17.90;99.90;;;;;;5036930;28;20205;-91
2021/08/19 09:14:35;;;;;;;7.73;4.50;;;17.90;99.90;;;;;;5037321;28;20196;-91
2021/08/19 09:17:06;;;;;;;7.53;3.93;;;17.90;99.90;;;;;;5037443;28;20219;-91
2021/08/19 09:19:38;;;;;;;8.90;4.10;;;17.80;99.90;;;;;;5019770;28;20302;-91
2021/08/19 09:22:13;;;;;;;7.90;4.10;;;17.80;99.90;;;;;;5036791;28;20620;-91
2021/08/19 09:24:44;;;;;;;7.43;4.20;;;17.70;99.90;;;;;;5037913;28;20220;-91
2021/08/19 09:27:18;;;;;;;7.97;4.37;;;17.70;99.90;;;;;;5021899;28;20224;-91
2021/08/19 09:29:51;;;;;;;5.80;3.73;;;17.60;99.90;;;;;;5038771;28;20248;-91
2021/08/19 09:32:24;;;;;;;7.97;3.93;;;17.60;99.90;;;;;;5037964;28;20228;-91
2021/08/19 09:34:55;;;;;;;7.63;3.77;;;17.50;99.90;;;;;;5038920;28;20212;-91
2021/08/19 09:37:27;;;;;;;9.40;4.53;;;17.40;99.90;;;;;;5022005;28;20205;-91
2021/08/19 09:40:00;;;;;;;6.80;4.00;;;17.50;99.90;;;;;;5039285;28;20736;-91
2021/08/19 09:42:41;;;;;;;7.87;3.93;;;17.40;99.90;;;;;;5040179;28;20212;-91
2021/08/19 09:45:25;;;;;;;8.60;4.43;;;17.30;99.90;;;;;;5049997;28;20216;-92
2021/08/19 09:48:08;;;;;;;6.07;4.20;;;17.30;99.90;;;;;;5048452;22;20216;-90
2021/08/19 09:50:40;;;;;;;7.00;4.00;;;17.30;99.90;;;;;;5035244;28;20197;-92
2021/08/19 09:53:22;;;;;;;7.77;4.00;;;17.20;99.90;;;;;;5035887;28;20217;-91
2021/08/19 09:58:50;;;;;;;6.13;3.80;;;17.20;99.90;;;;;;4984675;28;20239;-91
2021/08/19 10:01:28;;;;;;;7.20;3.90;;;17.20;99.90;;;;;;4978301;28;20203;-91
2021/08/19 10:03:59;;;;;;;6.07;3.90;;;17.20;99.90;;;;;;4978952;28;20219;-91
2021/08/19 10:06:32;;;;;;;8.00;4.47;;;17.20;99.90;;;;;;4978883;28;20195;-91
2021/08/19 10:09:03;;;;;;;6.63;3.80;;;17.20;99.90;;;;;;4960407;28;20274;-91
2021/08/19 10:11:36;;;;;;;6.70;4.07;;;17.20;99.90;;;;;;4944180;28;20231;-91
2021/08/19 10:14:08;;;;;;;9.33;4.30;;;17.10;99.90;;;;;;4978926;28;20222;-91
2021/08/19 10:16:42;;;;;;;5.60;3.80;;;17.20;99.90;;;;;;4977290;28;20207;-91
2021/08/19 10:19:16;;;;;;;9.23;3.87;;;17.20;99.90;;;;;;4978667;28;20293;-91
2021/08/19 10:21:52;;;;;;;6.20;4.10;;;17.20;99.90;;;;;;4980014;28;20211;-91
2021/08/19 10:24:34;;;;;;;6.83;3.83;;;17.20;99.90;;;;;;4981957;28;20230;-91
2021/08/19 10:27:09;;;;;;;9.23;4.20;;;17.20;99.90;;;;;;4981548;28;20237;-91
2021/08/19 10:29:45;;;;;;;8.03;4.23;;;17.20;99.90;;;;;;4980151;28;20233;-91
2021/08/19 10:32:42;;;;;;;7.70;4.03;;;17.20;99.90;;;;;;4980553;28;20663;-91
2021/08/19 10:35:17;;;;;;;8.60;3.70;;;17.20;99.90;;;;;;4967137;28;20203;-91
2021/08/19 10:38:03;;;;;;;6.90;4.00;;;17.20;99.90;;;;;;4982106;28;20825;-90
2021/08/19 10:40:41;;;;;;;8.93;4.50;;;17.20;99.90;;;;;;4981246;28;20591;-90
2021/08/19 10:43:46;;;;;;;11.10;4.53;;;17.10;99.90;;;;;;4962521;28;20243;-91
2021/08/19 10:46:18;;;;;;;11.90;5.00;;;17.10;99.90;;;;;;4981146;28;20235;-91
2021/08/19 10:48:53;;;;;;;12.77;4.97;;;17.10;99.90;;;;;;4995924;28;20620;-90
2021/08/19 10:51:30;;;;;;;10.80;5.27;;;17.10;99.90;;;;;;4962946;28;20714;-91
2021/08/19 10:54:02;;;;;;;10.50;5.23;;;17.10;99.90;;;;;;4961263;28;20258;-91
2021/08/19 10:56:46;;;;;;;10.73;4.90;;;17.10;99.90;;;;;;4960681;28;20249;-91
2021/08/19 10:59:33;;;;;;;14.43;5.00;;;17.10;99.90;;;;;;4960900;28;20259;-91
2021/08/19 11:02:05;;;;;;;9.43;4.60;;;17.20;99.90;;;;;;4943569;29;20203;-91
2021/08/19 11:04:47;;;;;;;10.80;5.27;;;17.10;99.90;;;;;;4960051;28;20204;-91
2021/08/19 11:07:47;;;;;;;10.00;5.10;;;17.10;99.90;;;;;;4961187;28;20207;-91
2021/08/19 11:10:27;;;;;;;11.47;5.73;;;17.00;99.90;;;;;;4959594;28;20290;-91
2021/08/19 11:13:03;;;;;;;11.57;5.43;;;16.90;99.90;;;;;;4960498;28;20282;-91
2021/08/19 11:15:36;;;;;;;11.37;5.40;;;16.90;99.90;;;;;;4960230;28;20207;-91
2021/08/19 11:18:07;;;;;;;11.17;5.30;;;16.90;99.90;;;;;;4959677;28;20644;-91
2021/08/19 11:20:42;;;;;;;12.60;5.60;;;16.90;99.90;;;;;;4959027;29;20322;-91
2021/08/19 11:23:14;;;;;;;12.80;5.47;;;16.80;99.90;;;;;;4959986;29;20227;-91
2021/08/19 11:25:47;;;;;;;10.90;5.07;;;16.70;99.90;;;;;;4959354;28;20218;-90
2021/08/19 11:28:36;;;;;;;13.87;5.97;;;16.70;99.90;;;;;;4961081;28;20528;-90
2021/08/19 11:31:15;;;;;;;15.20;5.87;;;16.60;99.90;;;;;;4958283;28;20741;-92
2021/08/19 11:33:47;;;;;;;19.97;6.00;;;16.40;99.90;;;;;;4959695;29;20251;-91
2021/08/19 11:36:20;;;;;;;16.23;5.67;;;16.50;99.90;;;;;;4959390;29;20219;-91
2021/08/19 11:38:58;;;;;;;14.70;6.10;;;16.40;99.90;;;;;;4959960;28;20235;-90
2021/08/19 11:41:29;;;;;;;16.27;5.93;;;16.40;99.90;;;;;;4959150;28;20222;-92
2021/08/19 11:44:01;;;;;;;11.97;5.40;;;16.30;99.90;;;;;;4960406;28;20310;-91
2021/08/19 11:46:34;;;;;;;11.17;5.87;;;16.20;99.90;;;;;;4962523;28;20223;-90
2021/08/19 11:49:13;;;;;;;12.60;5.53;;;16.20;99.90;;;;;;4978714;28;20338;-90
2021/08/19 11:51:47;;;;;;;15.53;5.93;;;16.10;99.90;;;;;;4977673;28;20218;-91
2021/08/19 11:54:20;;;;;;;12.60;5.83;;;16.10;99.90;;;;;;4978884;28;20207;-89
2021/08/19 11:56:51;;;;;;;13.40;6.40;;;16.10;99.90;;;;;;4978691;28;20210;-90
2021/08/19 11:59:22;;;;;;;14.50;5.60;;;16.00;99.90;;;;;;4978492;28;20318;-92
2021/08/19 12:01:55;;;;;;;14.27;6.43;;;16.00;99.90;;;;;;4977755;28;20275;-90
2021/08/19 12:04:33;;;;;;;14.73;5.80;;;15.90;99.90;;;;;;4977301;28;20223;-92
2021/08/19 12:07:12;;;;;;;16.47;6.40;;;15.90;99.90;;;;;;4980005;28;20297;-89
2021/08/19 12:09:45;;;;;;;15.43;6.50;;;15.90;99.90;;;;;;4985761;28;20206;-92
2021/08/19 12:12:17;;;;;;;15.27;6.10;;;15.90;99.90;;;;;;4978020;28;20215;-90
2021/08/19 12:14:51;;;;;;;14.73;6.23;;;15.90;99.90;;;;;;4978518;28;20637;-93
2021/08/19 12:17:23;;;;;;;16.00;6.60;;;15.90;99.90;;;;;;4997829;28;20206;-91
2021/08/19 12:20:12;;;;;;;16.40;7.03;;;15.90;99.90;;;;;;4997545;28;20273;-91
2021/08/19 12:22:46;;;;;;;19.80;6.80;;;15.80;99.90;;;;;;4998284;28;20206;-90
2021/08/19 12:25:30;;;;;;;12.33;6.13;;;15.90;99.90;;;;;;4998040;28;20272;-88
2021/08/19 12:28:12;;;;;;;15.57;6.37;;;15.80;99.90;;;;;;4997668;28;20230;-90
2021/08/19 12:31:02;;;;;;;14.53;6.60;;;15.80;99.90;;;;;;4999033;28;20238;-91
2021/08/19 12:33:36;;;;;;;18.03;7.03;;;15.80;99.90;;;;;;4997947;28;20264;-90
2021/08/19 12:36:21;;;;;;;15.57;6.97;;;15.80;99.90;;;;;;4980971;28;20237;-90
2021/08/19 12:38:54;;;;;;;18.43;6.87;;;15.80;99.90;;;;;;4980618;28;20213;-90
2021/08/19 12:41:26;;;;;;;16.47;7.00;;;15.80;99.90;;;;;;4996948;28;20245;-90
2021/08/19 12:44:07;;;;;;;15.00;7.00;;;15.80;99.90;;;;;;4979363;28;20297;-90
2021/08/19 12:46:39;;;;;;;17.67;7.60;;;15.80;99.90;;;;;;4997793;28;20210;-90
2021/08/19 12:49:27;;;;;;;15.23;7.00;;;15.90;99.90;;;;;;4999305;28;20257;-91
2021/08/19 12:52:16;;;;;;;15.10;7.77;;;15.90;99.90;;;;;;4997208;28;20214;-90
2021/08/19 12:55:01;;;;;;;16.23;7.67;;;15.90;99.90;;;;;;4998887;28;20710;-92
2021/08/19 12:57:34;;;;;;;19.13;8.23;;;16.00;99.90;;;;;;5001090;28;20222;-90
2021/08/19 13:00:09;;;;;;;21.17;8.40;;;16.00;99.90;;;;;;5000135;28;20257;-93
2021/08/19 13:02:40;;;;;;;28.00;9.03;;;16.00;99.90;;;;;;5013284;28;20210;-90
2021/08/19 13:05:13;;;;;;;22.03;8.90;;;16.10;99.90;;;;;;5016997;28;20206;-91
2021/08/19 13:07:45;;;;;;;26.57;9.50;;;16.10;99.90;;;;;;5016964;28;20206;-90
2021/08/19 13:10:19;;;;;;;24.33;9.70;;;16.10;99.90;;;;;;5011417;28;20282;-92
2021/08/19 13:12:51;;;;;;;21.97;10.17;;;16.10;99.90;;;;;;5010013;28;20218;-90
2021/08/19 13:15:24;;;;;;;22.57;9.53;;;16.10;99.90;;;;;;5003853;28;20225;-90
2021/08/19 13:17:56;;;;;;;23.17;9.70;;;16.10;99.90;;;;;;4987635;28;20203;-89
2021/08/19 13:20:27;;;;;;;19.83;9.70;;;16.10;99.90;;;;;;4981642;28;20759;-90
2021/08/19 13:23:00;;;;;;;26.73;9.80;;;16.10;99.90;;;;;;4990425;28;20218;-90
2021/08/19 13:25:33;;;;;;;23.43;10.27;;;16.00;99.90;;;;;;4987515;28;20230;-90
2021/08/19 13:28:12;;;;;;;24.57;9.83;;;16.00;99.90;;;;;;4982719;28;20217;-90
2021/08/19 13:30:43;;;;;;;25.10;10.40;;;16.00;99.90;;;;;;4980159;28;20210;-88
2021/08/19 13:33:14;;;;;;;18.97;9.17;;;16.00;99.90;;;;;;4980567;28;20255;-90
2021/08/19 13:35:46;;;;;;;20.43;10.13;;;16.10;99.90;;;;;;4979156;28;20255;-90
2021/08/19 13:38:18;;;;;;;25.90;11.00;;;16.20;99.90;;;;;;4979229;28;20211;-91
2021/08/19 13:40:52;;;;;;;22.03;9.70;;;16.20;99.90;;;;;;4977669;28;20330;-90
2021/08/19 13:43:23;;;;;;;24.63;10.33;;;16.20;99.90;;;;;;4977732;28;20734;-90
2021/08/19 13:45:54;;;;;;;26.10;10.93;;;16.20;99.90;;;;;;4986627;28;20670;-90
2021/08/19 13:48:25;;;;;;;24.27;10.37;;;16.30;99.90;;;;;;4997048;28;20234;-90
2021/08/19 13:50:56;;;;;;;28.37;11.27;;;16.30;99.90;;;;;;4995876;28;20214;-90